sensor_id;sensor_type;location;lat;lon;timestamp;P1;durP1;ratioP1;P2;durP2;ratioP2
3733;SDS011;1882;52.256;8.874;2022-07-22T00:01:45;33.67;;;23.37;;
3733;SDS011;1882;52.256;8.874;2022-07-22T00:04:45;36.90;;;23.83;;
3733;SDS011;1882;52.256;8.874;2022-07-22T00:07:11;32.93;;;21.30;;
3733;SDS011;1882;52.256;8.874;2022-07-22T00:09:59;34.83;;;22.80;;
3733;SDS011;1882;52.256;8.874;2022-07-22T00:12:26;35.27;;;22.20;;
3733;SDS011;1882;52.256;8.874;2022-07-22T00:14:53;31.70;;;21.40;;
3733;SDS011;1882;52.256;8.874;2022-07-22T00:17:30;25.03;;;17.20;;
3733;SDS011;1882;52.256;8.874;2022-07-22T00:23:13;20.07;;;15.37;;
3733;SDS011;1882;52.256;8.874;2022-07-22T00:25:40;24.73;;;16.40;;
3733;SDS011;1882;52.256;8.874;2022-07-22T00:28:07;19.83;;;14.20;;
3733;SDS011;1882;52.256;8.874;2022-07-22T00:30:36;21.90;;;14.53;;
3733;SDS011;1882;52.256;8.874;2022-07-22T00:33:06;18.40;;;12.43;;
3733;SDS011;1882;52.256;8.874;2022-07-22T00:35:33;19.97;;;11.37;;
3733;SDS011;1882;52.256;8.874;2022-07-22T00:38:11;17.20;;;9.40;;
3733;SDS011;1882;52.256;8.874;2022-07-22T00:40:38;12.90;;;7.57;;
3733;SDS011;1882;52.256;8.874;2022-07-22T00:43:04;10.07;;;6.77;;
3733;SDS011;1882;52.256;8.874;2022-07-22T00:45:35;10.13;;;6.70;;
3733;SDS011;1882;52.256;8.874;2022-07-22T00:48:14;13.03;;;6.33;;
3733;SDS011;1882;52.256;8.874;2022-07-22T00:50:59;9.77;;;5.60;;
3733;SDS011;1882;52.256;8.874;2022-07-22T00:53:26;10.03;;;6.40;;
3733;SDS011;1882;52.256;8.874;2022-07-22T00:56:02;11.90;;;5.87;;
3733;SDS011;1882;52.256;8.874;2022-07-22T00:58:31;7.77;;;5.40;;
3733;SDS011;1882;52.256;8.874;2022-07-22T01:00:58;10.43;;;6.03;;
3733;SDS011;1882;52.256;8.874;2022-07-22T01:03:28;8.70;;;5.50;;
3733;SDS011;1882;52.256;8.874;2022-07-22T01:05:56;7.03;;;4.97;;
3733;SDS011;1882;52.256;8.874;2022-07-22T01:08:30;7.57;;;5.20;;
3733;SDS011;1882;52.256;8.874;2022-07-22T01:11:11;5.97;;;5.00;;
3733;SDS011;1882;52.256;8.874;2022-07-22T01:13:46;6.00;;;4.50;;
3733;SDS011;1882;52.256;8.874;2022-07-22T01:16:14;9.10;;;4.63;;
3733;SDS011;1882;52.256;8.874;2022-07-22T01:18:43;7.20;;;4.67;;
3733;SDS011;1882;52.256;8.874;2022-07-22T01:21:17;9.90;;;4.87;;
3733;SDS011;1882;52.256;8.874;2022-07-22T01:23:47;10.83;;;4.80;;
3733;SDS011;1882;52.256;8.874;2022-07-22T01:26:15;5.23;;;4.20;;
3733;SDS011;1882;52.256;8.874;2022-07-22T01:28:42;4.47;;;3.80;;
3733;SDS011;1882;52.256;8.874;2022-07-22T01:31:12;4.63;;;4.07;;
3733;SDS011;1882;52.256;8.874;2022-07-22T01:33:39;4.93;;;4.27;;
3733;SDS011;1882;52.256;8.874;2022-07-22T01:36:18;5.33;;;4.83;;
3733;SDS011;1882;52.256;8.874;2022-07-22T01:38:45;4.80;;;4.20;;
3733;SDS011;1882;52.256;8.874;2022-07-22T01:41:17;5.97;;;4.53;;
3733;SDS011;1882;52.256;8.874;2022-07-22T01:43:49;4.63;;;4.23;;
3733;SDS011;1882;52.256;8.874;2022-07-22T01:46:16;4.93;;;4.40;;
3733;SDS011;1882;52.256;8.874;2022-07-22T01:49:07;4.57;;;4.17;;
3733;SDS011;1882;52.256;8.874;2022-07-22T01:51:51;8.43;;;4.20;;
3733;SDS011;1882;52.256;8.874;2022-07-22T01:54:34;15.90;;;4.50;;
3733;SDS011;1882;52.256;8.874;2022-07-22T01:57:18;5.93;;;5.20;;
3733;SDS011;1882;52.256;8.874;2022-07-22T02:00:13;7.33;;;5.07;;
3733;SDS011;1882;52.256;8.874;2022-07-22T02:02:54;12.63;;;5.20;;
3733;SDS011;1882;52.256;8.874;2022-07-22T02:05:23;8.40;;;5.70;;
3733;SDS011;1882;52.256;8.874;2022-07-22T02:07:59;6.70;;;5.30;;
3733;SDS011;1882;52.256;8.874;2022-07-22T02:10:38;8.53;;;5.73;;
3733;SDS011;1882;52.256;8.874;2022-07-22T02:13:05;8.30;;;6.40;;
3733;SDS011;1882;52.256;8.874;2022-07-22T02:15:39;8.50;;;5.70;;
3733;SDS011;1882;52.256;8.874;2022-07-22T02:18:09;7.13;;;5.83;;
3733;SDS011;1882;52.256;8.874;2022-07-22T02:20:40;12.43;;;5.80;;
3733;SDS011;1882;52.256;8.874;2022-07-22T02:23:07;10.53;;;5.47;;
3733;SDS011;1882;52.256;8.874;2022-07-22T02:25:34;14.03;;;5.73;;
3733;SDS011;1882;52.256;8.874;2022-07-22T02:28:02;10.03;;;5.53;;
3733;SDS011;1882;52.256;8.874;2022-07-22T02:30:29;10.90;;;6.10;;
3733;SDS011;1882;52.256;8.874;2022-07-22T02:32:58;7.27;;;5.30;;
3733;SDS011;1882;52.256;8.874;2022-07-22T02:35:26;8.00;;;4.87;;
3733;SDS011;1882;52.256;8.874;2022-07-22T02:38:12;7.87;;;4.70;;
3733;SDS011;1882;52.256;8.874;2022-07-22T02:40:41;9.60;;;4.83;;
3733;SDS011;1882;52.256;8.874;2022-07-22T02:43:13;11.40;;;4.73;;
3733;SDS011;1882;52.256;8.874;2022-07-22T02:45:43;6.47;;;4.50;;
3733;SDS011;1882;52.256;8.874;2022-07-22T02:48:12;6.00;;;3.90;;
3733;SDS011;1882;52.256;8.874;2022-07-22T02:50:49;11.37;;;4.73;;
3733;SDS011;1882;52.256;8.874;2022-07-22T02:56:18;6.07;;;3.60;;
3733;SDS011;1882;52.256;8.874;2022-07-22T02:58:46;8.23;;;3.47;;
3733;SDS011;1882;52.256;8.874;2022-07-22T03:01:21;9.00;;;3.63;;
3733;SDS011;1882;52.256;8.874;2022-07-22T03:03:54;6.33;;;3.17;;
3733;SDS011;1882;52.256;8.874;2022-07-22T03:06:22;4.00;;;2.67;;
3733;SDS011;1882;52.256;8.874;2022-07-22T03:09:17;6.37;;;2.80;;
3733;SDS011;1882;52.256;8.874;2022-07-22T03:14:42;4.83;;;2.60;;
3733;SDS011;1882;52.256;8.874;2022-07-22T03:17:09;4.53;;;2.93;;
3733;SDS011;1882;52.256;8.874;2022-07-22T03:19:52;4.30;;;2.50;;
3733;SDS011;1882;52.256;8.874;2022-07-22T03:22:21;7.13;;;2.90;;
3733;SDS011;1882;52.256;8.874;2022-07-22T03:24:57;3.87;;;2.73;;
3733;SDS011;1882;52.256;8.874;2022-07-22T03:27:24;8.37;;;3.00;;
3733;SDS011;1882;52.256;8.874;2022-07-22T03:29:51;6.80;;;3.30;;
3733;SDS011;1882;52.256;8.874;2022-07-22T03:32:18;14.57;;;3.70;;
3733;SDS011;1882;52.256;8.874;2022-07-22T03:34:53;10.97;;;3.53;;
3733;SDS011;1882;52.256;8.874;2022-07-22T03:37:36;13.37;;;3.50;;
3733;SDS011;1882;52.256;8.874;2022-07-22T03:40:03;9.33;;;3.80;;
3733;SDS011;1882;52.256;8.874;2022-07-22T03:42:31;5.90;;;3.40;;
3733;SDS011;1882;52.256;8.874;2022-07-22T03:44:58;11.20;;;3.80;;
3733;SDS011;1882;52.256;8.874;2022-07-22T03:47:28;6.40;;;3.37;;
3733;SDS011;1882;52.256;8.874;2022-07-22T03:49:56;10.83;;;3.50;;
3733;SDS011;1882;52.256;8.874;2022-07-22T03:52:27;10.50;;;3.87;;
3733;SDS011;1882;52.256;8.874;2022-07-22T03:54:55;9.47;;;3.80;;
3733;SDS011;1882;52.256;8.874;2022-07-22T03:57:25;12.73;;;4.20;;
3733;SDS011;1882;52.256;8.874;2022-07-22T04:00:01;8.80;;;4.10;;
3733;SDS011;1882;52.256;8.874;2022-07-22T04:02:39;10.40;;;3.80;;
3733;SDS011;1882;52.256;8.874;2022-07-22T04:05:14;8.80;;;3.67;;
3733;SDS011;1882;52.256;8.874;2022-07-22T04:07:42;5.93;;;3.50;;
3733;SDS011;1882;52.256;8.874;2022-07-22T04:10:09;7.43;;;3.60;;
3733;SDS011;1882;52.256;8.874;2022-07-22T04:12:39;10.80;;;3.73;;
3733;SDS011;1882;52.256;8.874;2022-07-22T04:15:14;5.50;;;3.70;;
3733;SDS011;1882;52.256;8.874;2022-07-22T04:17:41;5.30;;;3.27;;
3733;SDS011;1882;52.256;8.874;2022-07-22T04:20:08;8.10;;;3.30;;
3733;SDS011;1882;52.256;8.874;2022-07-22T04:23:04;5.50;;;3.30;;
3733;SDS011;1882;52.256;8.874;2022-07-22T04:25:30;8.13;;;3.40;;
3733;SDS011;1882;52.256;8.874;2022-07-22T04:27:57;10.27;;;3.63;;
3733;SDS011;1882;52.256;8.874;2022-07-22T04:30:33;4.60;;;3.03;;
3733;SDS011;1882;52.256;8.874;2022-07-22T04:33:00;6.97;;;3.53;;
3733;SDS011;1882;52.256;8.874;2022-07-22T04:35:29;5.97;;;2.90;;
3733;SDS011;1882;52.256;8.874;2022-07-22T04:38:17;3.77;;;2.90;;
3733;SDS011;1882;52.256;8.874;2022-07-22T04:41:00;7.07;;;3.40;;
3733;SDS011;1882;52.256;8.874;2022-07-22T04:43:30;11.67;;;3.50;;
3733;SDS011;1882;52.256;8.874;2022-07-22T04:45:57;10.17;;;2.87;;
3733;SDS011;1882;52.256;8.874;2022-07-22T04:48:34;6.07;;;3.07;;
3733;SDS011;1882;52.256;8.874;2022-07-22T04:51:03;5.00;;;2.23;;
3733;SDS011;1882;52.256;8.874;2022-07-22T04:53:31;9.57;;;2.70;;
3733;SDS011;1882;52.256;8.874;2022-07-22T04:56:12;5.70;;;2.60;;
3733;SDS011;1882;52.256;8.874;2022-07-22T04:58:39;9.07;;;2.90;;
3733;SDS011;1882;52.256;8.874;2022-07-22T05:01:11;9.30;;;3.50;;
3733;SDS011;1882;52.256;8.874;2022-07-22T05:03:42;8.10;;;3.00;;
3733;SDS011;1882;52.256;8.874;2022-07-22T05:06:10;11.43;;;3.43;;
3733;SDS011;1882;52.256;8.874;2022-07-22T05:08:40;11.50;;;3.10;;
3733;SDS011;1882;52.256;8.874;2022-07-22T05:11:10;8.13;;;3.30;;
3733;SDS011;1882;52.256;8.874;2022-07-22T05:13:45;10.03;;;3.50;;
3733;SDS011;1882;52.256;8.874;2022-07-22T05:16:20;8.23;;;3.20;;
3733;SDS011;1882;52.256;8.874;2022-07-22T05:18:48;5.30;;;3.20;;
3733;SDS011;1882;52.256;8.874;2022-07-22T05:21:15;8.80;;;3.50;;
3733;SDS011;1882;52.256;8.874;2022-07-22T05:23:41;9.40;;;3.60;;
3733;SDS011;1882;52.256;8.874;2022-07-22T05:26:17;7.80;;;3.90;;
3733;SDS011;1882;52.256;8.874;2022-07-22T05:28:45;9.57;;;3.57;;
3733;SDS011;1882;52.256;8.874;2022-07-22T05:31:12;13.73;;;4.10;;
3733;SDS011;1882;52.256;8.874;2022-07-22T05:33:56;7.43;;;3.40;;
3733;SDS011;1882;52.256;8.874;2022-07-22T05:36:37;6.93;;;3.50;;
3733;SDS011;1882;52.256;8.874;2022-07-22T05:39:05;11.20;;;3.77;;
3733;SDS011;1882;52.256;8.874;2022-07-22T05:41:32;6.63;;;3.77;;
3733;SDS011;1882;52.256;8.874;2022-07-22T05:44:04;9.70;;;3.90;;
3733;SDS011;1882;52.256;8.874;2022-07-22T05:46:31;9.70;;;3.63;;
3733;SDS011;1882;52.256;8.874;2022-07-22T05:48:59;9.80;;;4.13;;
3733;SDS011;1882;52.256;8.874;2022-07-22T05:51:38;9.60;;;3.93;;
3733;SDS011;1882;52.256;8.874;2022-07-22T05:54:05;6.03;;;3.70;;
3733;SDS011;1882;52.256;8.874;2022-07-22T05:56:38;7.27;;;4.17;;
3733;SDS011;1882;52.256;8.874;2022-07-22T05:59:05;9.67;;;4.60;;
3733;SDS011;1882;52.256;8.874;2022-07-22T06:01:32;10.90;;;5.20;;
3733;SDS011;1882;52.256;8.874;2022-07-22T06:04:15;8.77;;;5.30;;
3733;SDS011;1882;52.256;8.874;2022-07-22T06:13:47;9.50;;;5.50;;
3733;SDS011;1882;52.256;8.874;2022-07-22T06:16:17;19.60;;;5.57;;
3733;SDS011;1882;52.256;8.874;2022-07-22T06:18:47;14.67;;;6.30;;
3733;SDS011;1882;52.256;8.874;2022-07-22T06:21:14;21.10;;;6.43;;
3733;SDS011;1882;52.256;8.874;2022-07-22T06:23:51;12.03;;;6.20;;
3733;SDS011;1882;52.256;8.874;2022-07-22T06:26:31;14.70;;;5.60;;
3733;SDS011;1882;52.256;8.874;2022-07-22T06:28:59;14.23;;;5.40;;
3733;SDS011;1882;52.256;8.874;2022-07-22T06:31:30;10.90;;;6.00;;
3733;SDS011;1882;52.256;8.874;2022-07-22T06:33:57;14.63;;;6.20;;
3733;SDS011;1882;52.256;8.874;2022-07-22T06:36:33;9.40;;;5.47;;
3733;SDS011;1882;52.256;8.874;2022-07-22T06:39:00;11.30;;;6.20;;
3733;SDS011;1882;52.256;8.874;2022-07-22T06:41:56;13.27;;;6.10;;
3733;SDS011;1882;52.256;8.874;2022-07-22T06:45:09;7.80;;;6.13;;
3733;SDS011;1882;52.256;8.874;2022-07-22T06:47:59;9.90;;;6.10;;
3733;SDS011;1882;52.256;8.874;2022-07-22T06:50:27;11.50;;;5.90;;
3733;SDS011;1882;52.256;8.874;2022-07-22T06:52:58;6.80;;;5.07;;
3733;SDS011;1882;52.256;8.874;2022-07-22T06:55:27;11.23;;;4.77;;
3733;SDS011;1882;52.256;8.874;2022-07-22T07:04:20;13.63;;;3.93;;
3733;SDS011;1882;52.256;8.874;2022-07-22T07:07:46;10.17;;;4.43;;
3733;SDS011;1882;52.256;8.874;2022-07-22T07:10:24;8.80;;;3.97;;
3733;SDS011;1882;52.256;8.874;2022-07-22T07:13:00;12.10;;;4.30;;
3733;SDS011;1882;52.256;8.874;2022-07-22T07:15:54;13.03;;;4.37;;
3733;SDS011;1882;52.256;8.874;2022-07-22T07:18:21;15.77;;;4.50;;
3733;SDS011;1882;52.256;8.874;2022-07-22T07:20:49;16.77;;;4.07;;
3733;SDS011;1882;52.256;8.874;2022-07-22T07:23:16;14.50;;;4.83;;
3733;SDS011;1882;52.256;8.874;2022-07-22T07:25:44;12.17;;;3.70;;
3733;SDS011;1882;52.256;8.874;2022-07-22T07:28:11;8.90;;;3.90;;
3733;SDS011;1882;52.256;8.874;2022-07-22T07:30:58;11.60;;;4.70;;
3733;SDS011;1882;52.256;8.874;2022-07-22T07:33:25;9.10;;;4.20;;
3733;SDS011;1882;52.256;8.874;2022-07-22T07:35:52;10.07;;;4.27;;
3733;SDS011;1882;52.256;8.874;2022-07-22T07:38:33;12.60;;;4.80;;
3733;SDS011;1882;52.256;8.874;2022-07-22T07:41:02;19.17;;;4.37;;
3733;SDS011;1882;52.256;8.874;2022-07-22T07:43:29;10.97;;;4.07;;
3733;SDS011;1882;52.256;8.874;2022-07-22T07:45:57;7.97;;;4.07;;
3733;SDS011;1882;52.256;8.874;2022-07-22T07:48:24;13.57;;;4.10;;
3733;SDS011;1882;52.256;8.874;2022-07-22T07:50:50;12.93;;;4.10;;
3733;SDS011;1882;52.256;8.874;2022-07-22T07:53:17;8.33;;;3.60;;
3733;SDS011;1882;52.256;8.874;2022-07-22T07:55:46;12.73;;;4.23;;
3733;SDS011;1882;52.256;8.874;2022-07-22T07:58:15;15.83;;;4.03;;
3733;SDS011;1882;52.256;8.874;2022-07-22T08:00:42;15.47;;;5.57;;
3733;SDS011;1882;52.256;8.874;2022-07-22T08:03:11;11.63;;;3.90;;
3733;SDS011;1882;52.256;8.874;2022-07-22T08:05:38;15.57;;;4.60;;
3733;SDS011;1882;52.256;8.874;2022-07-22T08:08:18;13.60;;;4.63;;
3733;SDS011;1882;52.256;8.874;2022-07-22T08:10:47;13.30;;;4.80;;
3733;SDS011;1882;52.256;8.874;2022-07-22T08:14:00;11.53;;;4.40;;
3733;SDS011;1882;52.256;8.874;2022-07-22T08:16:40;10.37;;;4.30;;
3733;SDS011;1882;52.256;8.874;2022-07-22T08:19:10;14.90;;;5.07;;
3733;SDS011;1882;52.256;8.874;2022-07-22T08:21:37;15.33;;;4.77;;
3733;SDS011;1882;52.256;8.874;2022-07-22T08:24:17;13.40;;;4.80;;
3733;SDS011;1882;52.256;8.874;2022-07-22T08:26:44;11.87;;;4.90;;
3733;SDS011;1882;52.256;8.874;2022-07-22T08:29:10;13.00;;;4.73;;
3733;SDS011;1882;52.256;8.874;2022-07-22T08:31:38;10.27;;;4.57;;
3733;SDS011;1882;52.256;8.874;2022-07-22T08:34:10;10.23;;;5.00;;
3733;SDS011;1882;52.256;8.874;2022-07-22T08:36:37;10.33;;;3.90;;
3733;SDS011;1882;52.256;8.874;2022-07-22T08:39:04;12.70;;;4.67;;
3733;SDS011;1882;52.256;8.874;2022-07-22T08:41:36;9.53;;;3.93;;
3733;SDS011;1882;52.256;8.874;2022-07-22T08:44:05;8.77;;;4.20;;
3733;SDS011;1882;52.256;8.874;2022-07-22T08:46:34;13.07;;;4.70;;
3733;SDS011;1882;52.256;8.874;2022-07-22T08:49:20;9.47;;;4.37;;
3733;SDS011;1882;52.256;8.874;2022-07-22T08:52:02;9.67;;;4.20;;
3733;SDS011;1882;52.256;8.874;2022-07-22T08:54:45;10.10;;;4.40;;
3733;SDS011;1882;52.256;8.874;2022-07-22T08:57:13;7.70;;;4.20;;
3733;SDS011;1882;52.256;8.874;2022-07-22T08:59:50;14.80;;;4.50;;
3733;SDS011;1882;52.256;8.874;2022-07-22T09:02:18;8.83;;;4.20;;
3733;SDS011;1882;52.256;8.874;2022-07-22T09:04:50;8.10;;;3.50;;
3733;SDS011;1882;52.256;8.874;2022-07-22T09:10:01;10.37;;;3.80;;
3733;SDS011;1882;52.256;8.874;2022-07-22T09:12:56;9.00;;;3.80;;
3733;SDS011;1882;52.256;8.874;2022-07-22T09:15:49;9.37;;;3.67;;
3733;SDS011;1882;52.256;8.874;2022-07-22T09:22:02;10.93;;;4.40;;
3733;SDS011;1882;52.256;8.874;2022-07-22T09:24:49;9.83;;;4.17;;
3733;SDS011;1882;52.256;8.874;2022-07-22T09:27:23;9.90;;;4.40;;
3733;SDS011;1882;52.256;8.874;2022-07-22T09:30:12;8.87;;;4.30;;
3733;SDS011;1882;52.256;8.874;2022-07-22T09:32:52;13.03;;;3.93;;
3733;SDS011;1882;52.256;8.874;2022-07-22T09:35:35;13.83;;;4.20;;
3733;SDS011;1882;52.256;8.874;2022-07-22T09:38:03;6.83;;;3.50;;
3733;SDS011;1882;52.256;8.874;2022-07-22T09:40:36;7.10;;;3.57;;
3733;SDS011;1882;52.256;8.874;2022-07-22T09:43:13;4.60;;;3.37;;
3733;SDS011;1882;52.256;8.874;2022-07-22T09:45:52;5.77;;;3.43;;
3733;SDS011;1882;52.256;8.874;2022-07-22T09:48:46;12.67;;;3.93;;
3733;SDS011;1882;52.256;8.874;2022-07-22T09:51:32;7.33;;;3.70;;
3733;SDS011;1882;52.256;8.874;2022-07-22T09:56:54;11.33;;;4.33;;
3733;SDS011;1882;52.256;8.874;2022-07-22T09:59:21;4.93;;;3.63;;
3733;SDS011;1882;52.256;8.874;2022-07-22T10:01:55;5.57;;;3.40;;
3733;SDS011;1882;52.256;8.874;2022-07-22T10:04:28;5.37;;;2.93;;
3733;SDS011;1882;52.256;8.874;2022-07-22T10:07:10;4.73;;;3.30;;
3733;SDS011;1882;52.256;8.874;2022-07-22T10:09:38;6.70;;;3.40;;
3733;SDS011;1882;52.256;8.874;2022-07-22T10:12:13;6.10;;;3.20;;
3733;SDS011;1882;52.256;8.874;2022-07-22T10:14:41;6.53;;;3.40;;
3733;SDS011;1882;52.256;8.874;2022-07-22T10:17:08;5.73;;;3.50;;
3733;SDS011;1882;52.256;8.874;2022-07-22T10:19:36;4.27;;;3.40;;
3733;SDS011;1882;52.256;8.874;2022-07-22T10:25:13;9.10;;;3.80;;
3733;SDS011;1882;52.256;8.874;2022-07-22T10:30:12;12.23;;;4.10;;
3733;SDS011;1882;52.256;8.874;2022-07-22T10:32:42;7.97;;;3.73;;
3733;SDS011;1882;52.256;8.874;2022-07-22T10:37:38;4.97;;;3.53;;
3733;SDS011;1882;52.256;8.874;2022-07-22T10:48:04;6.13;;;3.40;;
3733;SDS011;1882;52.256;8.874;2022-07-22T10:53:21;12.37;;;3.60;;
3733;SDS011;1882;52.256;8.874;2022-07-22T11:01:39;5.60;;;3.50;;
3733;SDS011;1882;52.256;8.874;2022-07-22T11:04:10;5.50;;;4.10;;
3733;SDS011;1882;52.256;8.874;2022-07-22T11:06:45;7.70;;;4.00;;
3733;SDS011;1882;52.256;8.874;2022-07-22T11:09:19;9.10;;;4.17;;
3733;SDS011;1882;52.256;8.874;2022-07-22T11:11:50;17.77;;;4.60;;
3733;SDS011;1882;52.256;8.874;2022-07-22T11:14:28;5.43;;;4.10;;
3733;SDS011;1882;52.256;8.874;2022-07-22T11:17:08;5.90;;;3.60;;
3733;SDS011;1882;52.256;8.874;2022-07-22T11:19:37;11.23;;;3.90;;
3733;SDS011;1882;52.256;8.874;2022-07-22T11:22:05;8.70;;;3.80;;
3733;SDS011;1882;52.256;8.874;2022-07-22T11:24:39;6.03;;;4.03;;
3733;SDS011;1882;52.256;8.874;2022-07-22T11:27:14;7.37;;;3.90;;
3733;SDS011;1882;52.256;8.874;2022-07-22T11:29:53;8.93;;;3.93;;
3733;SDS011;1882;52.256;8.874;2022-07-22T11:32:22;7.30;;;4.13;;
3733;SDS011;1882;52.256;8.874;2022-07-22T11:34:55;9.40;;;4.10;;
3733;SDS011;1882;52.256;8.874;2022-07-22T11:37:23;10.57;;;4.70;;
3733;SDS011;1882;52.256;8.874;2022-07-22T11:39:52;6.30;;;4.43;;
3733;SDS011;1882;52.256;8.874;2022-07-22T11:42:25;9.70;;;4.50;;
3733;SDS011;1882;52.256;8.874;2022-07-22T11:44:52;6.47;;;4.53;;
3733;SDS011;1882;52.256;8.874;2022-07-22T11:47:20;12.27;;;4.60;;
3733;SDS011;1882;52.256;8.874;2022-07-22T11:49:47;10.17;;;4.10;;
3733;SDS011;1882;52.256;8.874;2022-07-22T11:52:22;7.40;;;3.90;;
3733;SDS011;1882;52.256;8.874;2022-07-22T11:54:48;19.97;;;5.30;;
3733;SDS011;1882;52.256;8.874;2022-07-22T11:57:16;8.80;;;4.70;;
3733;SDS011;1882;52.256;8.874;2022-07-22T11:59:53;5.80;;;4.07;;
3733;SDS011;1882;52.256;8.874;2022-07-22T12:02:20;10.23;;;3.93;;
3733;SDS011;1882;52.256;8.874;2022-07-22T12:04:47;8.87;;;4.33;;
3733;SDS011;1882;52.256;8.874;2022-07-22T12:07:22;8.00;;;4.00;;
3733;SDS011;1882;52.256;8.874;2022-07-22T12:09:49;10.93;;;4.40;;
3733;SDS011;1882;52.256;8.874;2022-07-22T12:12:16;9.13;;;3.73;;
3733;SDS011;1882;52.256;8.874;2022-07-22T12:14:46;7.63;;;4.37;;
3733;SDS011;1882;52.256;8.874;2022-07-22T12:17:16;11.23;;;4.90;;
3733;SDS011;1882;52.256;8.874;2022-07-22T12:19:43;7.83;;;4.53;;
3733;SDS011;1882;52.256;8.874;2022-07-22T12:22:11;10.77;;;4.50;;
3733;SDS011;1882;52.256;8.874;2022-07-22T12:24:46;11.87;;;5.10;;
3733;SDS011;1882;52.256;8.874;2022-07-22T12:27:18;8.20;;;5.30;;
3733;SDS011;1882;52.256;8.874;2022-07-22T12:29:46;8.97;;;5.33;;
3733;SDS011;1882;52.256;8.874;2022-07-22T12:32:17;8.27;;;5.00;;
3733;SDS011;1882;52.256;8.874;2022-07-22T12:40:04;9.00;;;5.53;;
3733;SDS011;1882;52.256;8.874;2022-07-22T12:42:37;10.40;;;5.97;;
3733;SDS011;1882;52.256;8.874;2022-07-22T12:47:44;10.10;;;5.70;;
3733;SDS011;1882;52.256;8.874;2022-07-22T12:50:51;8.27;;;5.30;;
3733;SDS011;1882;52.256;8.874;2022-07-22T12:53:26;9.43;;;6.10;;
3733;SDS011;1882;52.256;8.874;2022-07-22T12:55:56;7.07;;;5.07;;
3733;SDS011;1882;52.256;8.874;2022-07-22T12:58:27;9.63;;;5.00;;
3733;SDS011;1882;52.256;8.874;2022-07-22T13:01:02;9.00;;;4.83;;
3733;SDS011;1882;52.256;8.874;2022-07-22T13:03:29;7.80;;;4.63;;
3733;SDS011;1882;52.256;8.874;2022-07-22T13:05:57;8.07;;;4.73;;
3733;SDS011;1882;52.256;8.874;2022-07-22T13:08:29;6.37;;;5.10;;
3733;SDS011;1882;52.256;8.874;2022-07-22T13:11:14;11.80;;;4.87;;
3733;SDS011;1882;52.256;8.874;2022-07-22T13:13:41;12.37;;;5.00;;
3733;SDS011;1882;52.256;8.874;2022-07-22T13:16:19;12.50;;;5.70;;
3733;SDS011;1882;52.256;8.874;2022-07-22T13:18:52;7.97;;;5.20;;
3733;SDS011;1882;52.256;8.874;2022-07-22T13:21:19;8.97;;;5.30;;
3733;SDS011;1882;52.256;8.874;2022-07-22T13:23:49;11.27;;;5.60;;
3733;SDS011;1882;52.256;8.874;2022-07-22T13:26:16;8.83;;;4.97;;
3733;SDS011;1882;52.256;8.874;2022-07-22T13:28:43;7.57;;;5.07;;
3733;SDS011;1882;52.256;8.874;2022-07-22T13:31:12;9.90;;;5.73;;
3733;SDS011;1882;52.256;8.874;2022-07-22T13:33:39;12.17;;;5.00;;
3733;SDS011;1882;52.256;8.874;2022-07-22T13:36:13;11.80;;;5.37;;
3733;SDS011;1882;52.256;8.874;2022-07-22T13:38:50;7.37;;;5.13;;
3733;SDS011;1882;52.256;8.874;2022-07-22T13:41:22;9.03;;;5.30;;
3733;SDS011;1882;52.256;8.874;2022-07-22T13:43:49;13.97;;;5.20;;
3733;SDS011;1882;52.256;8.874;2022-07-22T13:46:17;8.30;;;5.07;;
3733;SDS011;1882;52.256;8.874;2022-07-22T13:48:53;7.63;;;4.97;;
3733;SDS011;1882;52.256;8.874;2022-07-22T13:51:38;6.47;;;4.43;;
3733;SDS011;1882;52.256;8.874;2022-07-22T13:54:18;7.10;;;4.73;;
3733;SDS011;1882;52.256;8.874;2022-07-22T13:57:42;10.90;;;5.63;;
3733;SDS011;1882;52.256;8.874;2022-07-22T14:00:26;8.90;;;5.00;;
3733;SDS011;1882;52.256;8.874;2022-07-22T14:02:56;7.43;;;4.73;;
3733;SDS011;1882;52.256;8.874;2022-07-22T14:05:38;11.83;;;5.80;;
3733;SDS011;1882;52.256;8.874;2022-07-22T14:11:35;13.50;;;5.47;;
3733;SDS011;1882;52.256;8.874;2022-07-22T14:14:05;8.60;;;5.37;;
3733;SDS011;1882;52.256;8.874;2022-07-22T14:16:41;7.27;;;4.47;;
3733;SDS011;1882;52.256;8.874;2022-07-22T14:19:38;9.13;;;5.70;;
3733;SDS011;1882;52.256;8.874;2022-07-22T14:22:05;7.20;;;5.50;;
3733;SDS011;1882;52.256;8.874;2022-07-22T14:24:34;15.47;;;5.60;;
3733;SDS011;1882;52.256;8.874;2022-07-22T14:27:05;13.23;;;5.80;;
3733;SDS011;1882;52.256;8.874;2022-07-22T14:29:54;11.07;;;5.63;;
3733;SDS011;1882;52.256;8.874;2022-07-22T14:32:20;9.27;;;5.63;;
3733;SDS011;1882;52.256;8.874;2022-07-22T14:35:18;12.67;;;5.70;;
3733;SDS011;1882;52.256;8.874;2022-07-22T14:40:55;14.73;;;6.07;;
3733;SDS011;1882;52.256;8.874;2022-07-22T14:43:29;10.73;;;6.63;;
3733;SDS011;1882;52.256;8.874;2022-07-22T14:46:17;7.50;;;6.20;;
3733;SDS011;1882;52.256;8.874;2022-07-22T14:48:45;13.83;;;6.60;;
3733;SDS011;1882;52.256;8.874;2022-07-22T14:51:23;10.20;;;6.37;;
3733;SDS011;1882;52.256;8.874;2022-07-22T14:53:58;7.63;;;6.23;;
3733;SDS011;1882;52.256;8.874;2022-07-22T14:56:28;9.70;;;6.70;;
3733;SDS011;1882;52.256;8.874;2022-07-22T14:58:58;8.73;;;6.17;;
3733;SDS011;1882;52.256;8.874;2022-07-22T15:01:34;12.83;;;5.67;;
3733;SDS011;1882;52.256;8.874;2022-07-22T15:04:01;13.13;;;7.07;;
3733;SDS011;1882;52.256;8.874;2022-07-22T15:06:28;8.90;;;6.20;;
3733;SDS011;1882;52.256;8.874;2022-07-22T15:08:55;11.90;;;7.30;;
3733;SDS011;1882;52.256;8.874;2022-07-22T15:11:22;8.63;;;5.90;;
3733;SDS011;1882;52.256;8.874;2022-07-22T15:13:49;11.60;;;6.40;;
3733;SDS011;1882;52.256;8.874;2022-07-22T15:16:15;8.20;;;6.13;;
3733;SDS011;1882;52.256;8.874;2022-07-22T15:18:43;9.70;;;6.30;;
3733;SDS011;1882;52.256;8.874;2022-07-22T15:21:09;8.23;;;5.97;;
3733;SDS011;1882;52.256;8.874;2022-07-22T15:23:37;13.27;;;6.27;;
3733;SDS011;1882;52.256;8.874;2022-07-22T15:26:08;8.73;;;6.27;;
3733;SDS011;1882;52.256;8.874;2022-07-22T15:28:38;9.27;;;6.40;;
3733;SDS011;1882;52.256;8.874;2022-07-22T15:31:05;9.50;;;6.00;;
3733;SDS011;1882;52.256;8.874;2022-07-22T15:33:33;8.77;;;5.90;;
3733;SDS011;1882;52.256;8.874;2022-07-22T15:36:08;7.00;;;5.60;;
3733;SDS011;1882;52.256;8.874;2022-07-22T15:38:53;7.93;;;5.30;;
3733;SDS011;1882;52.256;8.874;2022-07-22T15:41:25;8.37;;;5.50;;
3733;SDS011;1882;52.256;8.874;2022-07-22T15:44:04;12.57;;;5.90;;
3733;SDS011;1882;52.256;8.874;2022-07-22T15:46:44;18.37;;;6.10;;
3733;SDS011;1882;52.256;8.874;2022-07-22T15:49:47;9.83;;;6.03;;
3733;SDS011;1882;52.256;8.874;2022-07-22T15:52:22;9.03;;;6.13;;
3733;SDS011;1882;52.256;8.874;2022-07-22T15:55:26;8.73;;;6.50;;
3733;SDS011;1882;52.256;8.874;2022-07-22T15:58:02;12.47;;;5.97;;
3733;SDS011;1882;52.256;8.874;2022-07-22T16:00:51;10.73;;;5.47;;
3733;SDS011;1882;52.256;8.874;2022-07-22T16:06:18;12.70;;;6.27;;
3733;SDS011;1882;52.256;8.874;2022-07-22T16:12:09;10.40;;;6.40;;
3733;SDS011;1882;52.256;8.874;2022-07-22T16:14:36;15.83;;;6.33;;
3733;SDS011;1882;52.256;8.874;2022-07-22T16:17:08;11.17;;;6.00;;
3733;SDS011;1882;52.256;8.874;2022-07-22T16:19:38;11.03;;;5.73;;
3733;SDS011;1882;52.256;8.874;2022-07-22T16:22:07;10.33;;;5.70;;
3733;SDS011;1882;52.256;8.874;2022-07-22T16:24:43;8.23;;;5.13;;
3733;SDS011;1882;52.256;8.874;2022-07-22T16:27:13;10.63;;;5.60;;
3733;SDS011;1882;52.256;8.874;2022-07-22T16:30:07;11.77;;;5.47;;
3733;SDS011;1882;52.256;8.874;2022-07-22T16:32:36;10.13;;;5.40;;
3733;SDS011;1882;52.256;8.874;2022-07-22T16:35:33;5.93;;;5.10;;
3733;SDS011;1882;52.256;8.874;2022-07-22T16:38:03;7.50;;;4.50;;
3733;SDS011;1882;52.256;8.874;2022-07-22T16:40:42;10.37;;;5.20;;
3733;SDS011;1882;52.256;8.874;2022-07-22T16:43:12;12.03;;;6.00;;
3733;SDS011;1882;52.256;8.874;2022-07-22T16:45:49;6.97;;;5.07;;
3733;SDS011;1882;52.256;8.874;2022-07-22T16:48:16;10.47;;;5.03;;
3733;SDS011;1882;52.256;8.874;2022-07-22T16:51:02;6.30;;;4.97;;
3733;SDS011;1882;52.256;8.874;2022-07-22T16:53:49;15.63;;;5.90;;
3733;SDS011;1882;52.256;8.874;2022-07-22T16:56:25;9.23;;;5.37;;
3733;SDS011;1882;52.256;8.874;2022-07-22T16:58:59;8.40;;;5.40;;
3733;SDS011;1882;52.256;8.874;2022-07-22T17:01:56;7.30;;;4.53;;
3733;SDS011;1882;52.256;8.874;2022-07-22T17:05:17;8.70;;;5.00;;
3733;SDS011;1882;52.256;8.874;2022-07-22T17:08:07;7.47;;;5.23;;